Time;durP1;ratioP1;P1;durP2;ratioP2;P2;SDS_P1;SDS_P2;PMS_P1;PMS_P2;Temp;Humidity;BMP_temperature;BMP_pressure;BME280_temperature;BME280_humidity;BME280_pressure;Samples;Min_cycle;Max_cycle;Signal;HPM_P1;HPM_P2
2024/03/07 00:01:17;;;;;;;8.10;4.47;;;;;;;0.94;62.82;101185.67;1694763;85;21644;-68
2024/03/07 00:03:45;;;;;;;7.50;4.40;;;;;;;0.92;62.73;101184.92;1694698;85;21606;-69
2024/03/07 00:06:14;;;;;;;10.03;4.40;;;;;;;0.93;62.65;101181.73;1697904;84;21150;-69
2024/03/07 00:08:42;;;;;;;8.23;4.15;;;;;;;0.91;62.69;101180.51;1694754;85;21598;-69
2024/03/07 00:11:11;;;;;;;8.45;4.50;;;;;;;0.91;62.80;101173.77;1694643;85;21181;-67
2024/03/07 00:13:40;;;;;;;8.03;4.53;;;;;;;0.90;62.73;101181.48;1694847;85;21195;-69
2024/03/07 00:16:10;;;;;;;8.03;4.53;;;;;;;0.88;62.67;101171.30;1694669;85;21122;-70
2024/03/07 00:18:39;;;;;;;10.15;4.72;;;;;;;0.89;62.79;101173.02;1694776;85;21593;-70
2024/03/07 00:21:08;;;;;;;10.82;4.80;;;;;;;0.90;62.89;101164.44;1694700;85;21678;-70
2024/03/07 00:23:37;;;;;;;7.42;4.40;;;;;;;0.93;62.92;101173.65;1694605;85;21589;-70
2024/03/07 00:26:05;;;;;;;10.70;4.80;;;;;;;0.94;62.83;101168.63;1694906;85;21153;-70
2024/03/07 00:28:39;;;;;;;8.60;4.58;;;;;;;0.96;62.92;101174.77;1694796;85;21158;-71
2024/03/07 00:31:06;;;;;;;8.63;4.78;;;;;;;0.98;62.81;101169.25;1694604;84;21197;-69
2024/03/07 00:33:35;;;;;;;11.10;4.30;;;;;;;0.97;62.69;101174.27;1699685;83;21193;-69
2024/03/07 00:36:06;;;;;;;8.65;4.80;;;;;;;0.95;62.73;101168.99;1703707;84;21173;-70
2024/03/07 00:38:35;;;;;;;8.53;4.78;;;;;;;0.92;62.85;101170.09;1707407;83;21569;-70
2024/03/07 00:41:04;;;;;;;10.48;5.42;;;;;;;0.95;62.98;101171.20;1707558;84;21589;-69
2024/03/07 00:43:32;;;;;;;9.30;4.40;;;;;;;0.96;62.94;101166.66;1707576;83;21577;-69
2024/03/07 00:46:01;;;;;;;6.65;4.20;;;;;;;0.97;62.84;101163.48;1707485;83;21208;-68
2024/03/07 00:48:30;;;;;;;8.33;4.45;;;;;;;0.92;62.77;101161.13;1707417;84;21164;-69
2024/03/07 00:50:58;;;;;;;9.10;5.20;;;;;;;0.88;62.75;101163.20;1707516;83;21736;-69
2024/03/07 00:53:26;;;;;;;10.53;4.25;;;;;;;0.86;62.89;101164.30;1707359;84;21701;-70
2024/03/07 00:55:55;;;;;;;9.88;4.62;;;;;;;0.90;62.94;101168.48;1707463;83;21256;-69
2024/03/07 00:58:23;;;;;;;8.00;4.80;;;;;;;0.89;62.80;101161.37;1707462;84;21172;-68
2024/03/07 01:00:51;;;;;;;9.23;4.60;;;;;;;0.89;62.80;101162.72;1707486;83;21165;-72
2024/03/07 01:03:23;;;;;;;10.55;4.78;;;;;;;0.89;62.86;101160.02;1707669;84;21165;-69
2024/03/07 01:05:52;;;;;;;9.53;4.97;;;;;;;0.90;62.95;101159.05;1707421;84;21217;-69
2024/03/07 01:08:21;;;;;;;8.23;4.65;;;;;;;0.90;63.06;101166.64;1707492;84;21183;-68
2024/03/07 01:10:49;;;;;;;10.03;5.40;;;;;;;0.89;63.08;101164.92;1707485;84;21145;-69
2024/03/07 01:13:22;;;;;;;10.63;5.00;;;;;;;0.91;63.10;101163.46;1707337;83;21173;-69
2024/03/07 01:15:51;;;;;;;7.53;4.55;;;;;;;0.94;63.03;101165.44;1707572;83;21557;-68
2024/03/07 01:18:19;;;;;;;11.28;4.83;;;;;;;0.95;62.90;101164.45;1707511;83;21145;-69
2024/03/07 01:20:48;;;;;;;8.80;4.92;;;;;;;0.97;62.75;101164.83;1707525;83;21612;-69
2024/03/07 01:23:17;;;;;;;7.75;4.28;;;;;;;0.94;62.64;101160.53;1707734;84;21172;-70
2024/03/07 01:25:46;;;;;;;10.43;4.92;;;;;;;0.94;62.68;101160.53;1707684;84;21201;-69
2024/03/07 01:28:17;;;;;;;9.58;5.15;;;;;;;0.91;62.69;101159.41;1707541;83;21153;-68
2024/03/07 01:30:45;;;;;;;7.28;4.15;;;;;;;0.92;62.80;101160.64;1707706;84;21177;-69
2024/03/07 01:33:14;;;;;;;10.08;4.50;;;;;;;0.93;62.72;101161.02;1705840;84;21232;-69
2024/03/07 01:35:42;;;;;;;7.78;4.70;;;;;;;0.91;62.53;101167.51;1694628;85;21213;-69
2024/03/07 01:38:11;;;;;;;7.67;4.10;;;;;;;0.91;62.50;101165.67;1694679;85;21213;-68
2024/03/07 01:40:43;;;;;;;8.90;5.08;;;;;;;0.91;62.47;101160.27;1694646;85;21133;-69
2024/03/07 01:43:12;;;;;;;10.55;4.72;;;;;;;0.92;62.40;101155.73;1694739;85;21134;-69
2024/03/07 01:45:40;;;;;;;11.15;4.55;;;;;;;0.91;62.34;101156.72;1694727;85;21154;-69
2024/03/07 01:48:11;;;;;;;6.58;4.08;;;;;;;0.94;62.30;101169.97;1694774;84;21142;-69
2024/03/07 01:50:40;;;;;;;10.70;4.85;;;;;;;0.88;62.25;101162.34;1694735;85;21618;-69
2024/03/07 01:53:10;;;;;;;8.53;4.65;;;;;;;0.84;62.39;101156.33;1694595;85;21118;-69
2024/03/07 01:55:38;;;;;;;8.35;4.87;;;;;;;0.84;62.38;101153.62;1694646;85;21185;-69
2024/03/07 01:58:07;;;;;;;8.40;4.50;;;;;;;0.85;62.39;101152.65;1694716;85;21617;-69
2024/03/07 02:00:35;;;;;;;6.95;4.20;;;;;;;0.85;62.23;101151.30;1694859;85;21142;-70
2024/03/07 02:03:06;;;;;;;7.35;4.40;;;;;;;0.85;62.23;101147.25;1694784;85;21185;-68
2024/03/07 02:05:35;;;;;;;8.50;4.75;;;;;;;0.85;62.35;101156.70;1694651;85;21679;-70
2024/03/07 02:08:04;;;;;;;11.12;5.08;;;;;;;0.89;62.51;101156.83;1694806;85;21632;-70
2024/03/07 02:10:32;;;;;;;8.40;4.70;;;;;;;0.95;62.43;101160.90;1698149;84;21157;-69
2024/03/07 02:13:01;;;;;;;10.18;4.70;;;;;;;0.99;62.40;101160.17;1694649;85;21162;-69
2024/03/07 02:15:29;;;;;;;11.35;5.03;;;;;;;0.99;62.20;101159.69;1694612;85;21141;-70
2024/03/07 02:17:57;;;;;;;8.38;4.33;;;;;;;0.94;62.04;101162.73;1694696;84;21635;-69
2024/03/07 02:20:27;;;;;;;9.83;4.22;;;;;;;0.91;61.87;101160.27;1695008;85;21585;-70
2024/03/07 02:22:56;;;;;;;7.28;4.00;;;;;;;0.91;61.80;101155.36;1694766;85;21138;-68
2024/03/07 02:25:25;;;;;;;6.67;4.05;;;;;;;0.90;61.81;101161.73;1694855;85;21177;-70
2024/03/07 02:27:53;;;;;;;7.33;4.30;;;;;;;0.87;61.80;101155.23;1694874;85;21141;-69
2024/03/07 02:30:22;;;;;;;8.38;4.75;;;;;;;0.82;61.87;101160.11;1694891;85;21138;-69
2024/03/07 02:32:54;;;;;;;7.80;4.40;;;;;;;0.80;61.98;101157.53;1694704;85;21659;-70
2024/03/07 02:35:21;;;;;;;7.25;4.35;;;;;;;0.82;62.13;101161.47;1705719;83;21244;-69
2024/03/07 02:37:50;;;;;;;9.53;4.50;;;;;;;0.81;62.19;101160.60;1707487;83;21630;-69
2024/03/07 02:40:18;;;;;;;7.28;4.47;;;;;;;0.82;62.14;101157.42;1707516;83;21177;-68
2024/03/07 02:42:47;;;;;;;7.70;4.58;;;;;;;0.83;62.15;101165.39;1707603;84;21284;-68
2024/03/07 02:45:16;;;;;;;7.37;4.70;;;;;;;0.81;61.99;101155.70;1707479;83;21189;-68
2024/03/07 02:47:45;;;;;;;7.05;3.75;;;;;;;0.78;61.99;101156.79;1707507;83;21593;-70
2024/03/07 02:50:14;;;;;;;10.38;5.10;;;;;;;0.77;62.03;101157.77;1707490;84;21225;-68
2024/03/07 02:52:44;;;;;;;7.10;4.00;;;;;;;0.78;62.02;101157.28;1707552;84;21193;-70
2024/03/07 02:55:13;;;;;;;7.83;4.35;;;;;;;0.78;62.17;101159.98;1707706;84;21126;-69
2024/03/07 02:57:41;;;;;;;8.90;4.65;;;;;;;0.77;61.99;101156.91;1707582;83;21181;-68
2024/03/07 03:00:26;;;;;;;8.33;4.37;;;;;;;0.73;61.99;101157.62;1707721;84;21157;-71
2024/03/07 03:02:51;;;;;;;10.08;4.25;;;;;;;0.71;62.01;101151.49;1707266;83;21192;-68
2024/03/07 03:05:20;;;;;;;10.18;5.03;;;;;;;0.68;62.05;101154.42;1707527;84;21607;-70
2024/03/07 03:07:55;;;;;;;7.90;4.20;;;;;;;0.66;62.29;101155.02;1707520;84;21280;-69
2024/03/07 03:10:26;;;;;;;8.33;4.97;;;;;;;0.67;62.16;101152.70;1707693;83;21157;-70
2024/03/07 03:12:58;;;;;;;8.40;4.62;;;;;;;0.68;62.14;101151.72;1707527;84;21588;-69
2024/03/07 03:15:26;;;;;;;9.38;5.05;;;;;;;0.71;62.11;101148.80;1707684;83;21125;-71
2024/03/07 03:17:59;;;;;;;7.10;3.70;;;;;;;0.73;62.02;101150.89;1707582;84;21145;-68
2024/03/07 03:20:33;;;;;;;10.28;5.12;;;;;;;0.73;62.02;101149.53;1707522;84;21114;-69
2024/03/07 03:22:56;;;;;;;7.55;4.37;;;;;;;0.71;61.99;101152.84;1706844;84;21181;-68
2024/03/07 03:25:27;;;;;;;9.95;5.00;;;;;;;0.73;62.02;101150.02;1703651;83;21149;-71
2024/03/07 03:27:56;;;;;;;13.93;4.83;;;;;;;0.70;61.91;101152.47;1707760;84;21161;-70
2024/03/07 03:30:25;;;;;;;7.85;4.12;;;;;;;0.67;62.02;101157.23;1706730;83;21242;-69
2024/03/07 03:32:53;;;;;;;8.08;4.97;;;;;;;0.66;62.08;101152.33;1707528;84;21180;-69
2024/03/07 03:35:21;;;;;;;9.33;5.22;;;;;;;0.63;62.12;101155.22;1698258;84;21667;-68
2024/03/07 03:37:50;;;;;;;8.95;4.75;;;;;;;0.63;62.19;101161.96;1694700;85;21585;-69
2024/03/07 03:40:19;;;;;;;8.23;4.60;;;;;;;0.64;62.19;101166.38;1694802;85;21173;-70
2024/03/07 03:42:48;;;;;;;9.80;4.92;;;;;;;0.64;62.24;101171.77;1694697;85;21194;-68
2024/03/07 03:45:17;;;;;;;8.68;4.70;;;;;;;0.66;62.18;101176.59;1694791;85;21134;-68
2024/03/07 03:47:46;;;;;;;7.42;4.03;;;;;;;0.69;62.14;101167.41;1694818;85;21150;-68
2024/03/07 03:50:15;;;;;;;9.30;4.60;;;;;;;0.68;61.96;101165.70;1694868;85;21203;-68
2024/03/07 03:52:44;;;;;;;9.98;5.10;;;;;;;0.67;61.87;101163.97;1694854;84;21134;-69
2024/03/07 03:55:12;;;;;;;6.87;4.25;;;;;;;0.68;61.95;101166.55;1694733;85;21185;-67
2024/03/07 03:57:43;;;;;;;9.55;5.00;;;;;;;0.66;61.76;101173.91;1694702;85;21645;-69
2024/03/07 04:00:12;;;;;;;7.37;4.42;;;;;;;0.64;61.77;101176.68;1694905;85;21138;-70
2024/03/07 04:02:43;;;;;;;7.45;4.53;;;;;;;0.66;61.79;101178.44;1694671;84;21145;-71
2024/03/07 04:05:13;;;;;;;7.05;4.00;;;;;;;0.68;61.88;101169.25;1694612;85;21574;-69
2024/03/07 04:07:42;;;;;;;7.33;4.45;;;;;;;0.69;61.71;101172.32;1694611;85;21142;-70
2024/03/07 04:10:11;;;;;;;8.15;4.35;;;;;;;0.69;61.60;101178.20;1694785;85;21158;-72
2024/03/07 04:12:40;;;;;;;9.23;4.75;;;;;;;0.68;61.57;101169.25;1694860;85;21185;-70
2024/03/07 04:15:16;;;;;;;7.20;4.33;;;;;;;0.68;61.73;101175.13;1694671;85;21181;-68
2024/03/07 04:17:46;;;;;;;8.58;5.12;;;;;;;0.68;61.69;101176.48;1694794;85;21122;-68
2024/03/07 04:20:16;;;;;;;8.03;4.25;;;;;;;0.64;61.74;101183.91;1694973;85;21141;-69
2024/03/07 04:22:45;;;;;;;9.28;4.70;;;;;;;0.66;61.79;101175.25;1694640;85;21169;-69
2024/03/07 04:25:14;;;;;;;9.45;4.60;;;;;;;0.66;61.83;101175.25;1694619;85;21152;-70
2024/03/07 04:27:42;;;;;;;9.83;4.55;;;;;;;0.66;61.70;101183.34;1694513;85;21605;-69
2024/03/07 04:30:11;;;;;;;9.53;4.50;;;;;;;0.66;61.88;101179.30;1694851;85;21175;-69
2024/03/07 04:32:49;;;;;;;9.23;4.62;;;;;;;0.65;62.18;101181.62;1676701;85;21581;-70
2024/03/07 04:35:18;;;;;;;9.33;4.90;;;;;;;0.60;62.35;101180.58;1701654;84;21205;-70
2024/03/07 04:37:48;;;;;;;8.50;4.80;;;;;;;0.57;62.54;101185.34;1682572;84;21185;-69
2024/03/07 04:40:16;;;;;;;9.38;4.78;;;;;;;0.58;62.72;101181.67;1707416;83;21146;-69
2024/03/07 04:42:49;;;;;;;9.35;5.42;;;;;;;0.58;62.61;101183.02;1707693;83;21227;-70
2024/03/07 04:45:18;;;;;;;11.28;5.08;;;;;;;0.59;62.61;101181.56;1707766;84;21169;-68
2024/03/07 04:47:47;;;;;;;7.05;4.58;;;;;;;0.65;62.54;101187.02;1707375;84;21181;-69
2024/03/07 04:50:17;;;;;;;8.15;4.75;;;;;;;0.70;62.48;101186.66;1707440;83;21137;-70
2024/03/07 04:52:48;;;;;;;8.68;4.67;;;;;;;0.72;62.36;101191.45;1707461;83;21213;-70
2024/03/07 04:55:18;;;;;;;8.60;4.60;;;;;;;0.74;62.18;101189.50;1707556;83;21205;-68
2024/03/07 04:57:47;;;;;;;10.93;5.47;;;;;;;0.70;62.01;101197.45;1707697;84;21593;-70
2024/03/07 05:00:18;;;;;;;10.10;4.85;;;;;;;0.68;62.13;101191.31;1707834;84;21185;-71
2024/03/07 05:02:49;;;;;;;8.10;4.80;;;;;;;0.71;62.00;101193.78;1707487;83;21173;-70
2024/03/07 05:05:25;;;;;;;8.88;5.20;;;;;;;0.70;62.10;101198.31;1707636;84;21168;-70
2024/03/07 05:07:55;;;;;;;8.78;4.90;;;;;;;0.64;62.29;101193.34;1707652;83;21161;-69
2024/03/07 05:10:24;;;;;;;9.85;5.30;;;;;;;0.62;62.56;101192.11;1707568;83;21142;-69
2024/03/07 05:12:53;;;;;;;12.47;5.40;;;;;;;0.59;62.65;101196.39;1707689;83;21181;-69
2024/03/07 05:15:23;;;;;;;7.60;4.65;;;;;;;0.57;62.79;101196.13;1707475;83;21581;-69
2024/03/07 05:17:52;;;;;;;8.93;5.03;;;;;;;0.57;62.73;101196.98;1707494;84;21196;-70
2024/03/07 05:20:21;;;;;;;9.98;5.03;;;;;;;0.58;62.74;101205.94;1707728;84;21220;-69
2024/03/07 05:22:52;;;;;;;9.55;4.70;;;;;;;0.58;62.48;101207.29;1707605;84;21145;-71
2024/03/07 05:25:24;;;;;;;8.30;4.58;;;;;;;0.59;62.33;101212.56;1707623;84;21213;-70
2024/03/07 05:27:53;;;;;;;9.75;4.87;;;;;;;0.61;62.09;101212.45;1707519;83;21188;-68
2024/03/07 05:30:23;;;;;;;10.00;5.22;;;;;;;0.66;61.92;101213.00;1707615;83;21612;-69
2024/03/07 05:32:51;;;;;;;10.32;5.30;;;;;;;0.63;61.90;101208.67;1707739;83;21181;-69
2024/03/07 05:35:20;;;;;;;8.38;5.10;;;;;;;0.68;61.86;101218.28;1707590;84;21206;-71
2024/03/07 05:37:50;;;;;;;9.68;5.20;;;;;;;0.66;61.74;101219.75;1707570;83;21185;-69
2024/03/07 05:40:20;;;;;;;9.43;4.65;;;;;;;0.64;61.70;101216.27;1707523;83;21185;-69
2024/03/07 05:42:49;;;;;;;9.85;4.62;;;;;;;0.67;61.82;101216.08;1707687;83;21161;-70
2024/03/07 05:45:17;;;;;;;9.23;4.50;;;;;;;0.69;61.64;101216.82;1707554;84;21141;-71
2024/03/07 05:47:47;;;;;;;7.80;4.20;;;;;;;0.70;61.56;101221.23;1707648;84;21119;-69
2024/03/07 05:50:16;;;;;;;9.53;4.25;;;;;;;0.71;60.96;101221.61;1707525;83;21133;-69
2024/03/07 05:52:45;;;;;;;8.55;4.72;;;;;;;0.71;60.87;101217.56;1707430;83;21228;-69
2024/03/07 05:55:15;;;;;;;9.60;4.25;;;;;;;0.72;60.79;101221.98;1683637;84;21664;-69
2024/03/07 05:57:44;;;;;;;7.60;4.05;;;;;;;0.75;60.69;101228.50;1707370;84;21593;-70
2024/03/07 06:00:15;;;;;;;7.03;3.95;;;;;;;0.76;60.64;101220.78;1707673;84;21142;-70
2024/03/07 06:02:43;;;;;;;9.73;4.60;;;;;;;0.75;60.46;101225.80;1707666;84;21125;-69
2024/03/07 06:05:15;;;;;;;7.45;4.55;;;;;;;0.75;60.46;101223.59;1707674;83;21211;-70
2024/03/07 06:07:45;;;;;;;7.95;4.47;;;;;;;0.73;60.58;101231.80;1707629;83;21161;-70
2024/03/07 06:10:16;;;;;;;7.25;4.33;;;;;;;0.76;60.58;101224.83;1707502;84;21573;-69
2024/03/07 06:12:45;;;;;;;8.33;4.90;;;;;;;0.76;60.53;101228.02;1707491;84;21145;-70
2024/03/07 06:15:16;;;;;;;7.97;4.67;;;;;;;0.72;60.52;101230.08;1704396;84;21157;-70
2024/03/07 06:17:46;;;;;;;9.23;4.83;;;;;;;0.72;60.41;101230.08;1707337;83;21141;-70
2024/03/07 06:20:24;;;;;;;10.93;4.47;;;;;;;0.71;60.49;101238.28;1707525;83;21126;-69
2024/03/07 06:22:53;;;;;;;10.85;4.42;;;;;;;0.74;60.61;101236.70;1707486;84;21149;-70
2024/03/07 06:25:34;;;;;;;11.68;5.05;;;;;;;0.75;60.57;101231.20;1707560;84;21161;-70
2024/03/07 06:27:52;;;;;;;8.75;5.22;;;;;;;0.79;60.54;101237.22;1705579;84;21158;-70
2024/03/07 06:30:21;;;;;;;8.00;4.37;;;;;;;0.81;60.50;101236.13;1707555;84;21158;-70
2024/03/07 06:32:49;;;;;;;8.30;4.35;;;;;;;0.84;60.11;101234.55;1707555;84;21145;-70
2024/03/07 06:35:21;;;;;;;10.28;5.12;;;;;;;0.82;59.86;101233.81;1705561;84;21138;-69
2024/03/07 06:37:48;;;;;;;10.20;4.87;;;;;;;0.79;59.92;101231.83;1695642;84;21240;-70
2024/03/07 06:40:21;;;;;;;7.00;4.20;;;;;;;0.78;60.14;101238.20;1694900;85;21137;-70
2024/03/07 06:42:47;;;;;;;9.08;4.70;;;;;;;0.80;60.15;101234.41;1694796;85;21134;-70
2024/03/07 06:45:15;;;;;;;8.93;4.97;;;;;;;0.82;60.16;101238.34;1694724;85;21118;-69
2024/03/07 06:47:44;;;;;;;9.28;4.90;;;;;;;0.79;60.03;101240.78;1694808;85;21189;-69
2024/03/07 06:50:15;;;;;;;9.50;4.37;;;;;;;0.78;60.22;101235.02;1694726;85;21118;-69
2024/03/07 06:52:47;;;;;;;7.70;4.67;;;;;;;0.76;60.20;101232.92;1692379;84;21208;-69
2024/03/07 06:55:17;;;;;;;7.45;4.20;;;;;;;0.77;60.26;101239.17;1694679;84;21118;-70
2024/03/07 06:57:45;;;;;;;10.08;5.25;;;;;;;0.79;60.33;101242.62;1694552;85;21634;-69
2024/03/07 07:00:19;;;;;;;6.75;4.40;;;;;;;0.83;60.46;101251.72;1673979;85;21452;-70
2024/03/07 07:02:49;;;;;;;8.48;4.83;;;;;;;0.87;60.42;101245.12;1694685;84;21177;-69
2024/03/07 07:05:18;;;;;;;7.03;4.50;;;;;;;0.89;60.33;101249.91;1694664;85;21639;-70
2024/03/07 07:07:46;;;;;;;10.10;5.03;;;;;;;0.94;60.32;101246.87;1694568;85;21574;-70
2024/03/07 07:10:18;;;;;;;9.30;4.87;;;;;;;0.97;60.17;101243.08;1697995;84;21139;-71
2024/03/07 07:12:47;;;;;;;7.90;4.40;;;;;;;0.93;60.30;101251.41;1694581;85;21589;-71
2024/03/07 07:15:18;;;;;;;7.72;4.58;;;;;;;0.91;60.37;101249.30;1694740;85;21147;-71
2024/03/07 07:17:46;;;;;;;12.30;5.37;;;;;;;0.83;60.50;101250.37;1694530;85;21130;-70
2024/03/07 07:20:18;;;;;;;9.40;4.00;;;;;;;0.78;60.89;101251.69;1694691;85;21138;-71
2024/03/07 07:22:47;;;;;;;8.75;4.78;;;;;;;0.77;61.15;101257.57;1694826;85;21181;-70
2024/03/07 07:25:16;;;;;;;10.00;5.03;;;;;;;0.77;61.39;101260.75;1694583;85;21162;-70
2024/03/07 07:27:49;;;;;;;7.37;4.83;;;;;;;0.83;61.57;101260.30;1694680;85;21157;-70
2024/03/07 07:30:19;;;;;;;9.13;5.00;;;;;;;0.82;61.61;101262.13;1694645;85;21641;-70
2024/03/07 07:32:47;;;;;;;9.90;5.45;;;;;;;0.77;61.76;101259.41;1694549;85;21203;-70
2024/03/07 07:35:16;;;;;;;12.15;5.03;;;;;;;0.77;61.94;101265.66;1694730;85;21132;-70
2024/03/07 07:37:48;;;;;;;10.25;5.42;;;;;;;0.79;62.08;101258.80;1699502;84;21212;-70
2024/03/07 07:40:22;;;;;;;9.48;4.92;;;;;;;0.80;62.14;101254.64;1694610;85;21162;-69
2024/03/07 07:42:52;;;;;;;10.63;5.20;;;;;;;0.81;62.34;101263.59;1694623;85;21574;-69
2024/03/07 07:45:22;;;;;;;10.28;5.60;;;;;;;0.81;62.44;101250.11;1694548;85;21189;-70
2024/03/07 07:47:51;;;;;;;11.78;6.30;;;;;;;0.81;62.57;101262.25;1694956;85;21133;-70
2024/03/07 07:50:22;;;;;;;10.88;5.55;;;;;;;0.82;62.76;101265.31;1694613;85;21166;-70
2024/03/07 07:52:54;;;;;;;10.08;5.95;;;;;;;0.81;62.81;101263.11;1694485;85;21632;-70
2024/03/07 07:55:25;;;;;;;12.45;5.92;;;;;;;0.79;63.00;101265.06;1694505;85;21181;-70
2024/03/07 07:57:58;;;;;;;11.60;6.00;;;;;;;0.75;63.20;101265.41;1694770;85;21181;-69
2024/03/07 08:00:31;;;;;;;11.60;5.65;;;;;;;0.72;63.42;101269.19;1694858;85;21209;-70
2024/03/07 08:03:07;;;;;;;14.60;6.83;;;;;;;0.71;63.62;101266.12;1694812;85;21118;-69
2024/03/07 08:05:37;;;;;;;14.15;6.28;;;;;;;0.72;63.70;101267.84;1694890;85;21118;-69
2024/03/07 08:08:07;;;;;;;12.30;5.60;;;;;;;0.76;63.59;101269.82;1694737;85;21142;-70
2024/03/07 08:10:38;;;;;;;10.88;6.20;;;;;;;0.75;63.35;101270.80;1694866;85;21114;-70
2024/03/07 08:13:10;;;;;;;11.38;6.40;;;;;;;0.73;63.21;101276.30;1694598;85;21178;-69
2024/03/07 08:15:38;;;;;;;15.25;6.65;;;;;;;0.71;63.37;101268.81;1694729;85;21188;-70
2024/03/07 08:18:08;;;;;;;11.48;5.70;;;;;;;0.76;63.37;101269.33;1694801;85;21648;-70
2024/03/07 08:20:40;;;;;;;12.28;5.67;;;;;;;0.80;63.29;101266.78;1694692;85;21190;-70
2024/03/07 08:23:10;;;;;;;12.25;5.78;;;;;;;0.82;63.15;101275.62;1694798;85;21154;-70
2024/03/07 08:25:44;;;;;;;8.98;4.92;;;;;;;0.85;63.08;101272.70;1698179;84;21157;-70
2024/03/07 08:28:10;;;;;;;10.28;5.58;;;;;;;0.89;62.66;101277.37;1694328;85;21897;-70
2024/03/07 08:30:38;;;;;;;10.15;5.37;;;;;;;0.86;62.43;101275.77;1694731;85;21611;-70
2024/03/07 08:33:07;;;;;;;10.63;5.72;;;;;;;0.88;62.27;101271.61;1694643;85;21153;-71
2024/03/07 08:35:36;;;;;;;10.48;5.85;;;;;;;0.90;62.39;101275.05;1694849;85;21138;-69
2024/03/07 08:38:05;;;;;;;10.63;5.80;;;;;;;0.92;62.33;101275.31;1694701;84;21163;-69
2024/03/07 08:40:34;;;;;;;12.82;5.00;;;;;;;0.98;62.33;101281.23;1694768;85;21138;-70
2024/03/07 08:43:06;;;;;;;12.18;5.67;;;;;;;1.00;62.00;101282.83;1694792;84;21577;-70
2024/03/07 08:45:35;;;;;;;9.15;5.12;;;;;;;0.99;61.97;101278.90;1694779;85;21142;-71
2024/03/07 08:48:07;;;;;;;11.78;5.50;;;;;;;0.98;61.94;101276.69;1694865;85;21197;-70
2024/03/07 08:50:37;;;;;;;11.80;5.15;;;;;;;1.01;61.80;101286.39;1694702;85;21589;-70
2024/03/07 08:53:06;;;;;;;8.78;4.42;;;;;;;1.05;61.77;101280.65;1694655;85;21643;-71
2024/03/07 08:55:35;;;;;;;9.23;5.05;;;;;;;1.06;61.34;101282.38;1690017;85;21140;-72
2024/03/07 08:58:08;;;;;;;17.82;5.35;;;;;;;1.05;61.07;101279.30;1678850;84;21571;-71
2024/03/07 09:00:37;;;;;;;8.88;4.70;;;;;;;1.05;60.94;101280.65;1702132;84;21169;-71
2024/03/07 09:03:09;;;;;;;7.53;4.50;;;;;;;1.12;62.82;101277.00;1677876;85;21190;-71
2024/03/07 09:05:39;;;;;;;8.50;4.87;;;;;;;1.36;63.94;101276.52;1676353;85;21652;-72
2024/03/07 09:08:07;;;;;;;8.18;4.87;;;;;;;1.42;62.37;101271.14;1670155;85;21306;-72
2024/03/07 09:10:36;;;;;;;7.97;5.03;;;;;;;1.42;61.41;101278.75;1643421;87;21144;-72
2024/03/07 09:13:06;;;;;;;9.45;4.85;;;;;;;1.45;61.00;101276.30;1648453;85;21170;-72
2024/03/07 09:15:35;;;;;;;8.15;4.72;;;;;;;1.45;60.49;101281.22;1681257;85;21190;-72
2024/03/07 09:18:08;;;;;;;8.23;5.17;;;;;;;1.39;60.52;101282.17;1663801;85;21585;-72
2024/03/07 09:20:37;;;;;;;18.67;6.03;;;;;;;1.32;60.70;101276.88;1680799;85;21158;-73
2024/03/07 09:23:06;;;;;;;19.60;5.55;;;;;;;1.28;61.01;101279.77;1680812;85;21147;-72
2024/03/07 09:25:35;;;;;;;9.43;5.75;;;;;;;1.28;61.63;101281.13;1680838;85;21186;-72
2024/03/07 09:28:05;;;;;;;9.58;5.85;;;;;;;1.32;61.46;101285.83;1680876;85;21139;-71
2024/03/07 09:30:38;;;;;;;8.48;5.33;;;;;;;1.34;61.38;101280.31;1679306;85;21182;-72
2024/03/07 09:33:10;;;;;;;8.03;4.97;;;;;;;1.35;61.21;101282.04;1661309;86;21167;-71
2024/03/07 09:35:37;;;;;;;12.85;5.67;;;;;;;1.32;60.88;101280.43;1661065;86;21143;-72
2024/03/07 09:38:07;;;;;;;9.23;4.95;;;;;;;1.33;60.77;101280.80;1664090;85;21169;-72
2024/03/07 09:40:36;;;;;;;8.68;4.85;;;;;;;1.33;60.68;101280.80;1675501;85;21142;-73
2024/03/07 09:43:04;;;;;;;12.70;8.05;;;;;;;1.40;60.61;101286.59;1675699;85;21122;-71
2024/03/07 09:45:34;;;;;;;9.35;5.22;;;;;;;1.45;60.46;101282.56;1675611;85;21173;-71
2024/03/07 09:48:02;;;;;;;8.80;5.20;;;;;;;1.48;60.29;101279.62;1675655;85;21146;-72
2024/03/07 09:50:32;;;;;;;9.25;5.60;;;;;;;1.50;60.17;101281.73;1675623;85;22270;-72
2024/03/07 09:53:01;;;;;;;10.72;6.00;;;;;;;1.53;60.19;101274.73;1654610;87;21161;-72
2024/03/07 09:55:31;;;;;;;8.03;4.75;;;;;;;1.57;60.02;101279.41;1675476;85;21234;-72
2024/03/07 09:58:01;;;;;;;13.98;7.50;;;;;;;1.54;59.86;101272.41;1675788;85;21165;-72
2024/03/07 10:00:29;;;;;;;8.80;4.90;;;;;;;1.52;59.94;101281.12;1675697;85;21209;-73
2024/03/07 10:03:08;;;;;;;11.73;5.58;;;;;;;1.53;59.93;101275.23;1654492;87;21214;-73
2024/03/07 10:05:38;;;;;;;14.68;5.62;;;;;;;1.55;59.86;101271.43;1686994;84;22109;-73
2024/03/07 10:08:08;;;;;;;11.10;5.30;;;;;;;1.55;59.72;101277.32;1700420;84;21605;-72
2024/03/07 10:10:37;;;;;;;12.78;6.60;;;;;;;1.54;59.85;101275.59;1700293;84;21585;-73
2024/03/07 10:13:08;;;;;;;23.15;11.03;;;;;;;1.53;59.84;101277.44;1700239;84;21617;-73
2024/03/07 10:15:36;;;;;;;11.70;6.67;;;;;;;1.54;59.98;101266.14;1700457;84;21134;-72
2024/03/07 10:18:13;;;;;;;10.28;6.33;;;;;;;1.54;60.18;101268.36;1700406;84;21137;-72
2024/03/07 10:20:43;;;;;;;10.55;5.75;;;;;;;1.56;59.83;101274.50;1700248;84;21169;-73
2024/03/07 10:23:12;;;;;;;9.48;5.05;;;;;;;1.62;60.27;101274.52;1679326;84;21137;-72
2024/03/07 10:25:42;;;;;;;13.68;6.67;;;;;;;1.67;59.85;101272.31;1679112;84;21169;-73
2024/03/07 10:28:11;;;;;;;11.18;5.92;;;;;;;1.68;59.60;101268.64;1700540;84;21619;-73
2024/03/07 10:30:44;;;;;;;7.58;4.80;;;;;;;1.70;59.66;101269.38;1678856;84;21138;-74
2024/03/07 10:33:13;;;;;;;10.40;5.58;;;;;;;1.75;59.34;101270.37;1700718;84;21125;-73
2024/03/07 10:35:42;;;;;;;7.47;4.87;;;;;;;1.75;60.40;101268.53;1700533;84;21646;-72
2024/03/07 10:38:11;;;;;;;10.82;5.40;;;;;;;1.76;59.36;101263.98;1677060;84;21158;-74
2024/03/07 10:40:43;;;;;;;11.75;5.47;;;;;;;1.78;59.41;101270.13;1666670;85;21212;-73
2024/03/07 10:43:11;;;;;;;9.83;4.12;;;;;;;1.80;59.30;101266.81;1684013;85;21317;-73
2024/03/07 10:45:48;;;;;;;9.70;5.35;;;;;;;1.89;59.29;101264.74;1683915;85;21597;-72
2024/03/07 10:48:19;;;;;;;9.08;4.78;;;;;;;1.90;59.05;101265.11;1683824;85;21166;-73
2024/03/07 10:51:09;;;;;;;14.00;5.90;;;;;;;1.90;58.36;101260.57;1683635;85;21210;-72
2024/03/07 10:54:05;;;;;;;7.60;4.65;;;;;;;1.89;57.60;101257.50;1683948;85;21214;-72
2024/03/07 10:57:05;;;;;;;11.53;5.00;;;;;;;1.78;57.36;101265.58;1683772;85;21162;-72
2024/03/07 10:59:33;;;;;;;11.78;5.05;;;;;;;1.72;57.36;101260.66;1669046;86;21174;-72
2024/03/07 11:02:16;;;;;;;7.15;4.28;;;;;;;1.70;57.30;101254.52;1669177;86;21671;-72
2024/03/07 11:04:46;;;;;;;10.23;5.58;;;;;;;1.71;57.19;101260.78;1665782;86;21775;-72
2024/03/07 11:07:16;;;;;;;7.35;5.00;;;;;;;1.72;57.14;101257.10;1648675;86;21593;-73
2024/03/07 11:09:46;;;;;;;8.40;4.85;;;;;;;1.75;57.20;101257.72;1648794;87;21644;-71
2024/03/07 11:12:16;;;;;;;9.85;5.45;;;;;;;1.83;57.53;101261.17;1648868;86;21157;-72
2024/03/07 11:14:46;;;;;;;10.43;4.47;;;;;;;1.86;57.24;101258.23;1648653;87;21267;-73
2024/03/07 11:17:15;;;;;;;11.33;5.50;;;;;;;1.90;56.81;101255.66;1649049;87;21158;-73
2024/03/07 11:19:45;;;;;;;9.63;4.80;;;;;;;1.87;57.44;101255.41;1648900;86;21150;-73
2024/03/07 11:22:31;;;;;;;10.10;4.87;;;;;;;1.91;57.03;101256.02;1648900;86;21209;-74
2024/03/07 11:25:10;;;;;;;12.00;5.95;;;;;;;1.92;56.77;101253.69;1647136;87;21210;-73
2024/03/07 11:27:39;;;;;;;12.65;5.65;;;;;;;1.94;56.60;101248.16;1649298;87;21181;-74
2024/03/07 11:30:08;;;;;;;12.65;6.20;;;;;;;1.93;56.59;101251.36;1656924;85;21625;-74
2024/03/07 11:32:41;;;;;;;17.25;5.90;;;;;;;1.93;56.60;101252.70;1633029;87;21185;-73
2024/03/07 11:35:22;;;;;;;11.53;5.83;;;;;;;1.95;56.76;101255.29;1664876;86;21110;-73
2024/03/07 11:37:48;;;;;;;8.45;4.97;;;;;;;1.98;56.48;101250.53;1645040;86;21171;-73
2024/03/07 11:40:31;;;;;;;11.00;5.45;;;;;;;2.02;56.34;101247.95;1671943;85;21170;-74
2024/03/07 11:43:04;;;;;;;8.60;5.05;;;;;;;2.10;56.11;101250.05;1671082;86;21655;-73
2024/03/07 11:45:38;;;;;;;9.03;5.15;;;;;;;2.10;55.43;101254.10;1674303;86;21659;-72